createdAt,value
2022-08-18T00:02:03.567Z,25.30
2022-08-18T00:04:35.452Z,25.40
2022-08-18T00:07:05.415Z,25.60
2022-08-18T00:09:35.467Z,25.70
2022-08-18T00:12:06.323Z,25.70
2022-08-18T00:14:34.490Z,25.70
2022-08-18T00:17:03.799Z,25.70
2022-08-18T00:19:47.130Z,25.70
2022-08-18T00:22:19.497Z,25.70
2022-08-18T00:24:49.679Z,25.50
2022-08-18T00:27:23.318Z,25.20
2022-08-18T00:29:53.336Z,24.90
2022-08-18T00:32:24.911Z,24.80
2022-08-18T00:34:53.072Z,24.90
2022-08-18T00:37:23.298Z,25.00
2022-08-18T00:39:53.027Z,25.10
2022-08-18T00:42:28.823Z,25.10
2022-08-18T00:45:07.303Z,25.10
2022-08-18T00:47:42.544Z,25.20
2022-08-18T00:50:14.821Z,25.30
2022-08-18T00:52:49.791Z,25.40
2022-08-18T00:55:19.439Z,25.80
2022-08-18T00:57:49.552Z,26.00
2022-08-18T01:00:18.103Z,26.10
2022-08-18T01:02:51.632Z,26.30
2022-08-18T01:05:25.309Z,26.30
2022-08-18T01:07:53.691Z,26.30
2022-08-18T01:10:23.948Z,26.30
2022-08-18T01:12:56.419Z,26.30
2022-08-18T01:15:28.790Z,26.30
2022-08-18T01:18:18.963Z,26.20
2022-08-18T01:21:17.860Z,26.10
2022-08-18T01:23:49.032Z,26.00
2022-08-18T01:26:17.941Z,26.00
2022-08-18T01:28:47.400Z,25.90
2022-08-18T01:31:34.248Z,25.90
2022-08-18T01:34:02.244Z,25.80
2022-08-18T01:36:30.389Z,25.90
2022-08-18T01:38:59.715Z,25.80
2022-08-18T01:41:30.799Z,25.90
2022-08-18T01:44:01.267Z,25.90
2022-08-18T01:46:30.526Z,25.80
2022-08-18T01:49:01.026Z,25.90
2022-08-18T01:51:36.317Z,25.90
2022-08-18T01:54:11.315Z,26.00
2022-08-18T01:56:40.714Z,26.00
2022-08-18T01:59:14.541Z,26.00
2022-08-18T02:01:50.340Z,25.90
2022-08-18T02:04:41.331Z,25.80
2022-08-18T02:07:12.021Z,25.60
2022-08-18T02:09:43.267Z,25.40
2022-08-18T02:12:11.975Z,25.30
2022-08-18T02:14:40.398Z,25.30
2022-08-18T02:17:10.954Z,25.30
2022-08-18T02:19:40.819Z,25.10
2022-08-18T02:22:10.135Z,25.10
2022-08-18T02:24:38.633Z,25.00
2022-08-18T02:27:09.440Z,25.00
2022-08-18T02:29:38.229Z,24.90
2022-08-18T02:32:07.089Z,24.90
2022-08-18T02:34:35.171Z,25.00
2022-08-18T02:37:04.420Z,25.10
2022-08-18T02:39:34.485Z,25.00
2022-08-18T02:42:02.472Z,24.90
2022-08-18T02:44:32.209Z,24.80
2022-08-18T02:47:00.242Z,24.90
2022-08-18T02:49:28.485Z,24.90
2022-08-18T02:51:56.423Z,24.80
2022-08-18T02:54:25.423Z,24.70
2022-08-18T02:56:54.268Z,24.50
2022-08-18T02:59:25.252Z,24.20
2022-08-18T03:01:56.776Z,24.10
2022-08-18T03:04:29.512Z,23.80
2022-08-18T03:07:00.489Z,23.60
2022-08-18T03:09:29.221Z,23.80
2022-08-18T03:11:57.652Z,23.90
2022-08-18T03:14:26.386Z,23.90
2022-08-18T03:16:56.028Z,23.80
2022-08-18T03:19:25.858Z,23.90
2022-08-18T03:21:54.954Z,24.00
2022-08-18T03:24:25.430Z,24.00
2022-08-18T03:26:56.758Z,23.80
2022-08-18T03:29:30.942Z,23.80
2022-08-18T03:32:02.065Z,23.90
2022-08-18T03:34:30.594Z,24.00
2022-08-18T03:36:58.787Z,24.00
2022-08-18T03:39:28.604Z,24.10
2022-08-18T03:42:01.251Z,24.10
2022-08-18T03:44:31.949Z,24.20
2022-08-18T03:47:02.997Z,24.30
2022-08-18T03:49:31.633Z,24.30
2022-08-18T03:52:00.962Z,24.20
2022-08-18T03:54:31.918Z,24.20
2022-08-18T03:57:00.242Z,24.00
2022-08-18T03:59:31.620Z,23.90
2022-08-18T04:02:03.561Z,23.90
2022-08-18T04:04:31.568Z,23.80
2022-08-18T04:07:04.697Z,23.80
2022-08-18T04:09:35.070Z,23.90
2022-08-18T04:12:13.391Z,24.00
2022-08-18T04:14:48.069Z,24.10
2022-08-18T04:17:20.283Z,24.10
2022-08-18T04:19:48.474Z,24.10
2022-08-18T04:22:17.559Z,24.00
2022-08-18T04:24:48.098Z,24.00
2022-08-18T04:27:18.377Z,23.90
2022-08-18T04:29:46.319Z,24.20
2022-08-18T04:32:14.558Z,24.20
2022-08-18T04:34:44.381Z,24.10
2022-08-18T04:37:13.410Z,24.40
2022-08-18T04:39:41.416Z,24.20
2022-08-18T04:42:09.520Z,24.20
2022-08-18T04:44:38.840Z,24.40
2022-08-18T04:47:07.852Z,24.40
2022-08-18T04:49:36.464Z,24.20
2022-08-18T04:52:39.784Z,24.20
2022-08-18T04:55:10.749Z,24.20
2022-08-18T04:57:39.055Z,24.30
2022-08-18T05:00:09.878Z,24.30
2022-08-18T05:02:37.872Z,24.10
2022-08-18T05:05:06.998Z,24.20
2022-08-18T05:07:36.294Z,24.20
2022-08-18T05:10:04.846Z,24.20
2022-08-18T05:12:32.763Z,24.20
2022-08-18T05:15:00.913Z,24.20
2022-08-18T05:17:31.097Z,24.00
2022-08-18T05:20:01.780Z,23.90
2022-08-18T05:22:30.857Z,23.80
2022-08-18T05:25:01.110Z,23.90
2022-08-18T05:27:33.923Z,23.90
2022-08-18T05:30:02.350Z,24.00
2022-08-18T05:32:47.347Z,24.10
2022-08-18T05:35:22.528Z,24.10
2022-08-18T05:38:04.890Z,24.10
2022-08-18T05:40:35.853Z,24.10
2022-08-18T05:43:06.598Z,24.20
2022-08-18T05:45:35.839Z,24.10
2022-08-18T05:48:04.157Z,24.10
2022-08-18T05:50:36.346Z,24.10
2022-08-18T05:53:12.530Z,24.20
2022-08-18T05:56:05.154Z,24.60
2022-08-18T05:58:36.591Z,24.60
2022-08-18T06:01:11.507Z,24.40
2022-08-18T06:03:46.795Z,24.40
2022-08-18T06:06:19.687Z,24.30
2022-08-18T06:08:53.749Z,24.20
2022-08-18T06:11:23.827Z,24.10
2022-08-18T06:13:57.723Z,24.20
2022-08-18T06:16:40.939Z,24.30
2022-08-18T06:19:25.491Z,24.20
2022-08-18T06:22:03.700Z,24.30
2022-08-18T06:24:38.882Z,24.20
2022-08-18T06:27:16.100Z,24.20
2022-08-18T06:30:05.229Z,24.30
2022-08-18T06:32:52.729Z,24.40
2022-08-18T06:35:30.348Z,24.30
2022-08-18T06:38:24.434Z,24.30
2022-08-18T06:41:03.890Z,24.30
2022-08-18T06:43:34.227Z,24.30
2022-08-18T06:46:04.165Z,24.30
2022-08-18T06:48:41.486Z,24.20
2022-08-18T06:51:10.124Z,24.20
2022-08-18T06:53:59.635Z,24.20
2022-08-18T06:56:34.883Z,24.40
2022-08-18T06:59:20.166Z,24.50
2022-08-18T07:01:51.837Z,24.40
2022-08-18T07:04:40.109Z,24.50
2022-08-18T07:07:17.351Z,24.40
2022-08-18T07:09:45.895Z,24.40
2022-08-18T07:12:21.892Z,24.40
2022-08-18T07:14:54.266Z,24.40
2022-08-18T07:17:43.689Z,24.40
2022-08-18T07:20:21.549Z,24.40
2022-08-18T07:22:59.646Z,24.40
2022-08-18T07:25:32.575Z,24.60
2022-08-18T07:28:02.593Z,24.60
2022-08-18T07:30:37.029Z,24.60
2022-08-18T07:33:15.289Z,24.50
2022-08-18T07:35:47.591Z,24.60
2022-08-18T07:38:41.604Z,24.60
2022-08-18T07:41:15.527Z,24.60
2022-08-18T07:44:04.262Z,24.60
2022-08-18T07:46:39.929Z,24.40
2022-08-18T07:49:07.899Z,24.40
2022-08-18T07:51:47.901Z,24.40
2022-08-18T07:54:50.733Z,24.40
2022-08-18T07:57:27.921Z,24.40
2022-08-18T08:00:04.757Z,24.40
2022-08-18T08:02:54.873Z,24.30
2022-08-18T08:05:39.971Z,24.40
2022-08-18T08:08:25.057Z,24.40
2022-08-18T08:11:04.956Z,24.40
2022-08-18T08:13:55.185Z,24.50
2022-08-18T08:16:37.105Z,24.40
2022-08-18T08:19:16.368Z,24.60
2022-08-18T08:21:53.397Z,24.50
2022-08-18T08:24:32.223Z,24.50
2022-08-18T08:27:06.562Z,24.40
2022-08-18T08:29:41.045Z,24.20
2022-08-18T08:32:13.279Z,24.10
2022-08-18T08:34:46.679Z,24.00
2022-08-18T08:37:21.100Z,24.00
2022-08-18T08:39:55.189Z,24.00
2022-08-18T08:42:37.484Z,24.10
2022-08-18T08:45:11.605Z,24.00
2022-08-18T08:47:46.939Z,24.10
2022-08-18T08:50:20.744Z,24.40
2022-08-18T08:52:57.157Z,24.40
2022-08-18T08:55:28.196Z,24.40
2022-08-18T08:58:02.947Z,24.30
2022-08-18T09:00:32.116Z,24.30
2022-08-18T09:03:15.268Z,24.40
2022-08-18T09:05:56.724Z,24.60
2022-08-18T09:08:43.585Z,24.60
2022-08-18T09:11:28.281Z,24.60
2022-08-18T09:14:25.470Z,24.60
2022-08-18T09:17:10.045Z,24.60
2022-08-18T09:19:53.306Z,24.60
2022-08-18T09:22:32.201Z,24.60
2022-08-18T09:25:00.928Z,24.60
2022-08-18T09:28:00.095Z,24.70
2022-08-18T09:30:45.019Z,24.70
2022-08-18T09:33:25.557Z,24.60
2022-08-18T09:36:10.629Z,24.50
2022-08-18T09:39:08.129Z,24.50
2022-08-18T09:41:46.037Z,24.40
2022-08-18T09:45:04.697Z,24.40
2022-08-18T09:48:01.278Z,24.50
2022-08-18T09:50:57.883Z,24.60
2022-08-18T09:53:53.917Z,24.70
2022-08-18T09:56:55.585Z,24.70
2022-08-18T10:00:01.333Z,24.70
2022-08-18T10:03:12.627Z,24.70
2022-08-18T10:05:55.762Z,24.60
2022-08-18T10:08:50.947Z,24.60
2022-08-18T10:11:27.499Z,24.60
2022-08-18T10:14:09.709Z,24.60
2022-08-18T10:17:15.889Z,24.70
2022-08-18T10:19:52.041Z,24.70
2022-08-18T10:22:39.533Z,24.60
2022-08-18T10:25:22.943Z,24.70
2022-08-18T10:27:56.462Z,24.70
2022-08-18T10:31:06.155Z,24.70
2022-08-18T10:34:15.946Z,24.70
2022-08-18T10:36:53.399Z,24.80
2022-08-18T10:39:23.654Z,24.90
2022-08-18T10:42:03.955Z,24.80
2022-08-18T10:44:35.588Z,25.00
2022-08-18T10:47:05.038Z,25.00
2022-08-18T10:49:46.902Z,24.90
2022-08-18T10:52:46.213Z,25.00
2022-08-18T10:55:48.529Z,24.90
2022-08-18T10:58:45.205Z,25.00
2022-08-18T11:01:24.464Z,25.00
2022-08-18T11:04:13.884Z,24.90
2022-08-18T11:06:48.373Z,25.00
2022-08-18T11:09:25.898Z,25.00
2022-08-18T11:11:59.145Z,24.90
2022-08-18T11:15:02.029Z,24.90
2022-08-18T11:18:01.899Z,24.90
2022-08-18T11:20:32.752Z,24.90
2022-08-18T11:23:03.768Z,25.00
2022-08-18T11:25:33.668Z,25.00
2022-08-18T11:28:03.313Z,25.00
2022-08-18T11:30:37.449Z,25.20
2022-08-18T11:33:08.320Z,25.30
2022-08-18T11:35:48.204Z,25.40
2022-08-18T11:38:20.722Z,25.40
2022-08-18T11:41:09.845Z,25.40
2022-08-18T11:43:43.199Z,25.60
2022-08-18T11:49:26.070Z,25.70
2022-08-18T11:51:57.444Z,25.70
2022-08-18T11:54:38.918Z,25.70
2022-08-18T11:57:42.799Z,25.70
2022-08-18T12:00:44.898Z,25.60
2022-08-18T12:03:21.830Z,25.60
2022-08-18T12:05:54.042Z,25.70
2022-08-18T12:08:56.607Z,25.70
2022-08-18T12:11:26.430Z,25.70
2022-08-18T12:14:31.898Z,25.70
2022-08-18T12:16:54.382Z,25.80
2022-08-18T12:19:25.245Z,25.80
2022-08-18T12:21:57.230Z,25.90
2022-08-18T12:24:29.370Z,25.90
2022-08-18T12:30:07.974Z,26.00
2022-08-18T12:32:49.300Z,26.00
2022-08-18T12:35:22.112Z,25.90
2022-08-18T12:38:00.111Z,26.00
2022-08-18T12:40:32.360Z,26.00
2022-08-18T12:43:00.979Z,26.00
2022-08-18T12:45:31.071Z,26.00
2022-08-18T12:48:04.133Z,26.00
2022-08-18T12:50:42.677Z,26.10
2022-08-18T12:53:29.609Z,26.00
2022-08-18T12:58:56.442Z,26.00
2022-08-18T13:01:26.589Z,26.00
2022-08-18T13:04:10.876Z,26.00
2022-08-18T13:06:59.840Z,25.90
2022-08-18T13:09:35.044Z,25.90
2022-08-18T13:12:19.599Z,25.80
2022-08-18T13:14:48.061Z,25.90
2022-08-18T13:17:30.701Z,26.00
2022-08-18T13:20:07.959Z,26.00
2022-08-18T13:22:37.419Z,26.10
2022-08-18T13:25:07.141Z,26.10
2022-08-18T13:27:45.621Z,26.30
2022-08-18T13:30:31.555Z,26.30
2022-08-18T13:33:05.455Z,26.30
2022-08-18T13:35:54.086Z,26.20
2022-08-18T13:38:27.135Z,26.40
2022-08-18T13:40:58.846Z,26.50
2022-08-18T13:43:32.177Z,26.60
2022-08-18T13:46:01.367Z,26.50
2022-08-18T13:48:29.778Z,26.60
2022-08-18T13:51:01.024Z,26.60
2022-08-18T13:53:31.984Z,26.60
2022-08-18T13:56:00.430Z,26.60
2022-08-18T13:58:29.501Z,26.60
2022-08-18T14:01:22.488Z,26.60
2022-08-18T14:03:48.096Z,26.70
2022-08-18T14:06:21.895Z,26.80
2022-08-18T14:08:52.685Z,26.50
2022-08-18T14:11:23.650Z,26.30
2022-08-18T14:13:54.099Z,26.00
2022-08-18T14:16:23.159Z,25.90
2022-08-18T14:19:12.952Z,25.80
2022-08-18T14:22:02.572Z,25.50
2022-08-18T14:24:50.132Z,25.60
2022-08-18T14:27:18.734Z,25.30
2022-08-18T14:29:49.753Z,25.10
2022-08-18T14:32:21.955Z,25.10
2022-08-18T14:35:00.229Z,25.50
2022-08-18T14:37:30.492Z,25.90
2022-08-18T14:40:04.385Z,26.20
2022-08-18T14:42:41.102Z,26.40
2022-08-18T14:45:17.709Z,26.40
2022-08-18T14:47:59.332Z,26.60
2022-08-18T14:50:27.448Z,26.80
2022-08-18T14:52:55.394Z,26.80
2022-08-18T14:55:24.950Z,26.70
2022-08-18T14:57:54.924Z,26.70
2022-08-18T15:00:28.177Z,26.60
2022-08-18T15:02:57.404Z,26.20
2022-08-18T15:05:31.809Z,25.80
2022-08-18T15:08:03.660Z,26.00
2022-08-18T15:10:34.003Z,26.30
2022-08-18T15:13:02.087Z,26.20
2022-08-18T15:15:42.211Z,26.00
2022-08-18T15:18:22.386Z,25.80
2022-08-18T15:21:10.511Z,25.90
2022-08-18T15:24:19.075Z,25.70
2022-08-18T15:26:51.428Z,25.40
2022-08-18T15:29:27.711Z,25.40
2022-08-18T15:31:59.761Z,25.70
2022-08-18T15:34:30.757Z,25.80
2022-08-18T15:37:07.710Z,25.90
2022-08-18T15:39:38.033Z,25.80
2022-08-18T15:42:13.676Z,25.70
2022-08-18T15:44:44.731Z,25.60
2022-08-18T15:47:12.808Z,25.40
2022-08-18T15:49:48.795Z,25.20
2022-08-18T15:52:19.909Z,25.30
2022-08-18T15:54:50.283Z,25.60
2022-08-18T15:57:39.083Z,25.80
2022-08-18T16:00:12.102Z,26.10
2022-08-18T16:02:44.586Z,26.50
2022-08-18T16:05:16.898Z,26.60
2022-08-18T16:07:45.936Z,26.90
2022-08-18T16:10:14.648Z,26.90
2022-08-18T16:12:45.912Z,26.70
2022-08-18T16:15:15.454Z,26.60
2022-08-18T16:17:48.541Z,26.60
2022-08-18T16:20:17.711Z,26.90
2022-08-18T16:22:45.807Z,27.10
2022-08-18T16:25:14.364Z,27.10
2022-08-18T16:27:44.611Z,27.20
2022-08-18T16:30:15.496Z,27.30
2022-08-18T16:32:43.522Z,27.40
2022-08-18T16:35:11.507Z,27.50
2022-08-18T16:37:39.652Z,27.50
2022-08-18T16:40:09.359Z,27.30
2022-08-18T16:42:37.410Z,27.30
2022-08-18T16:45:08.400Z,27.30
2022-08-18T16:47:38.857Z,27.20
2022-08-18T16:50:09.056Z,27.20
2022-08-18T16:52:37.287Z,27.10
2022-08-18T16:55:06.818Z,27.30
2022-08-18T16:57:54.984Z,27.10
2022-08-18T17:00:43.383Z,26.80
2022-08-18T17:03:29.687Z,26.70
2022-08-18T17:06:02.197Z,26.80
2022-08-18T17:08:33.470Z,26.90
2022-08-18T17:11:01.972Z,27.00
2022-08-18T17:13:30.255Z,27.10
2022-08-18T17:16:01.315Z,27.20
2022-08-18T17:18:29.656Z,27.40
2022-08-18T17:20:57.971Z,27.50
2022-08-18T17:23:27.548Z,27.60
2022-08-18T17:25:56.428Z,27.60
2022-08-18T17:28:28.356Z,27.60
2022-08-18T17:30:56.288Z,27.60
2022-08-18T17:33:29.090Z,27.70
2022-08-18T17:36:00.911Z,27.80
2022-08-18T17:38:34.142Z,27.90
2022-08-18T17:41:04.273Z,27.90
2022-08-18T17:43:33.942Z,27.90
2022-08-18T17:46:06.271Z,27.90
2022-08-18T17:48:40.863Z,27.90
2022-08-18T17:51:31.089Z,27.90
2022-08-18T17:54:01.009Z,28.00
2022-08-18T17:56:36.229Z,27.90
2022-08-18T17:59:46.375Z,27.90
2022-08-18T18:02:19.041Z,27.70
2022-08-18T18:05:00.803Z,27.50
2022-08-18T18:07:32.290Z,27.50
2022-08-18T18:10:04.385Z,27.60
2022-08-18T18:12:35.681Z,27.60
2022-08-18T18:15:07.879Z,27.70
2022-08-18T18:17:38.999Z,27.80
2022-08-18T18:20:19.138Z,27.90
2022-08-18T18:22:47.282Z,27.90
2022-08-18T18:25:34.820Z,27.90
2022-08-18T18:28:03.313Z,27.90
2022-08-18T18:30:32.647Z,27.90
2022-08-18T18:33:03.010Z,27.90
2022-08-18T18:35:54.439Z,28.00
2022-08-18T18:38:27.962Z,27.90
2022-08-18T18:40:58.834Z,27.90
2022-08-18T18:43:29.757Z,27.90
2022-08-18T18:46:09.857Z,27.80
2022-08-18T18:48:52.512Z,27.60
2022-08-18T18:51:33.476Z,27.60
2022-08-18T18:54:12.377Z,27.60
2022-08-18T18:56:46.170Z,27.60
2022-08-18T18:59:23.372Z,27.60
2022-08-18T19:02:01.410Z,27.60
2022-08-18T19:04:38.492Z,27.60
2022-08-18T19:07:21.274Z,27.60
2022-08-18T19:09:56.933Z,27.60
2022-08-18T19:12:29.597Z,27.60
2022-08-18T19:15:03.670Z,27.60
2022-08-18T19:17:39.999Z,27.60
2022-08-18T19:20:13.521Z,27.60
2022-08-18T19:22:47.502Z,27.50
2022-08-18T19:25:20.454Z,27.50
2022-08-18T19:27:53.377Z,27.40
2022-08-18T19:30:22.839Z,27.50
2022-08-18T19:32:53.801Z,27.40
2022-08-18T19:35:35.142Z,27.30
2022-08-18T19:38:15.161Z,27.20
2022-08-18T19:40:48.510Z,27.00
2022-08-18T19:43:26.470Z,27.00
2022-08-18T19:46:03.302Z,27.00
2022-08-18T19:48:39.216Z,26.90
2022-08-18T19:51:14.451Z,26.90
2022-08-18T19:53:57.779Z,27.00
2022-08-18T19:56:42.189Z,26.90
2022-08-18T19:59:34.113Z,26.90
2022-08-18T20:02:19.233Z,26.80
2022-08-18T20:04:59.290Z,26.70
2022-08-18T20:07:55.552Z,26.70
2022-08-18T20:10:50.555Z,26.70
2022-08-18T20:13:32.674Z,26.60
2022-08-18T20:16:24.835Z,26.60
2022-08-18T20:18:58.332Z,26.50
2022-08-18T20:21:45.486Z,26.40
2022-08-18T20:24:39.666Z,26.40
2022-08-18T20:27:40.067Z,26.30
2022-08-18T20:30:33.130Z,26.30
2022-08-18T20:33:32.083Z,26.30
2022-08-18T20:36:17.928Z,26.30
2022-08-18T20:38:47.964Z,26.30
2022-08-18T20:41:52.475Z,26.30
2022-08-18T20:44:48.841Z,26.30
2022-08-18T20:47:44.562Z,26.30
2022-08-18T20:50:40.295Z,26.30
2022-08-18T20:53:22.366Z,26.30
2022-08-18T20:55:58.089Z,26.20
2022-08-18T20:58:35.130Z,26.10
2022-08-18T21:01:06.339Z,26.00
2022-08-18T21:03:40.458Z,26.00
2022-08-18T21:06:09.375Z,26.00
2022-08-18T21:08:39.852Z,26.00
2022-08-18T21:11:20.524Z,26.00
2022-08-18T21:14:03.962Z,26.00
2022-08-18T21:16:39.255Z,26.00
2022-08-18T21:19:13.718Z,25.90
2022-08-18T21:21:46.500Z,25.90
2022-08-18T21:24:26.947Z,25.70
2022-08-18T21:26:58.506Z,25.70
2022-08-18T21:29:44.211Z,25.70
2022-08-18T21:32:20.247Z,25.70
2022-08-18T21:34:48.510Z,25.50
2022-08-18T21:37:18.327Z,25.40
2022-08-18T21:39:54.902Z,25.50
2022-08-18T21:42:27.617Z,25.50
2022-08-18T21:45:00.615Z,25.60
2022-08-18T21:47:32.852Z,25.60
2022-08-18T21:50:09.240Z,25.60
2022-08-18T21:52:39.395Z,25.60
2022-08-18T21:55:13.536Z,25.60
2022-08-18T21:58:00.794Z,25.50
2022-08-18T22:00:31.425Z,25.60
2022-08-18T22:03:21.461Z,25.60
2022-08-18T22:06:00.769Z,25.60
2022-08-18T22:08:31.022Z,25.70
2022-08-18T22:11:51.993Z,25.70
2022-08-18T22:14:36.266Z,25.70
2022-08-18T22:17:27.026Z,25.70
2022-08-18T22:19:56.771Z,25.60
2022-08-18T22:22:42.083Z,25.50
2022-08-18T22:25:13.004Z,25.50
2022-08-18T22:27:41.139Z,25.50
2022-08-18T22:30:09.730Z,25.50
2022-08-18T22:32:39.128Z,25.50
2022-08-18T22:35:09.475Z,25.50
2022-08-18T22:37:48.672Z,25.50
2022-08-18T22:40:21.901Z,25.40
2022-08-18T22:42:50.315Z,25.30
2022-08-18T22:45:18.840Z,25.30
2022-08-18T22:47:46.845Z,25.20
2022-08-18T22:50:16.547Z,25.20
2022-08-18T22:52:48.371Z,25.20
2022-08-18T22:55:21.689Z,25.20
2022-08-18T22:57:55.830Z,25.20
2022-08-18T23:00:25.520Z,25.10
2022-08-18T23:02:54.021Z,24.80
2022-08-18T23:05:23.646Z,24.80
2022-08-18T23:07:51.626Z,24.90
2022-08-18T23:10:19.757Z,24.90
2022-08-18T23:12:49.771Z,25.00
2022-08-18T23:15:19.122Z,25.10
2022-08-18T23:17:47.090Z,25.10
2022-08-18T23:20:18.347Z,25.20
2022-08-18T23:22:48.804Z,25.20
2022-08-18T23:25:17.174Z,25.10
2022-08-18T23:27:45.133Z,25.10
2022-08-18T23:30:13.773Z,25.10
2022-08-18T23:32:43.587Z,25.00
2022-08-18T23:35:11.681Z,24.90
2022-08-18T23:37:40.221Z,24.90
2022-08-18T23:40:13.156Z,24.80
2022-08-18T23:42:41.132Z,24.70
2022-08-18T23:45:10.377Z,24.60
2022-08-18T23:47:38.378Z,24.70
2022-08-18T23:50:07.643Z,24.70
2022-08-18T23:52:35.575Z,24.70
2022-08-18T23:55:05.502Z,24.70
2022-08-18T23:57:36.084Z,24.70
